Aérodrome :
LOGIN :

S'inscrire | Disclaimer

   EN    FR    IT 

 










Légende :    VFR   VFR Marginal   IFR   IFR Intensif   IFR Très Intensif
Visi : 
Plafond : 
>= 8 km
>= 3000ft
5 à 8 km
1000 à 3000 ft
1500m à 5 km
500 à 1000 ft
800 à 1500m
200 à 500 ft
< 800m
< 200 ft
Symboles :   Orages  Brouillard  Fortes neiges  Fortes précipitations  Vent > 20 kt
SIGMETs :   Divers  Orages  Givrage  Turbulence  Onde Orograph.  Cendres Volcan.






- Altitude de l'aérodrome : 645 ft
- Code IATA : DLE


LFGJ - Dole Tavaux

DERNIER METAR :
  • 261400Z AUTO VRB02KT 4600 BR BKN029 OVC037 08/07 Q1018 NOSIG

METARs EXPIRÉS :
  • 261330Z AUTO VRB03KT 4200 BR BKN029/// OVC036/// ///TCU 08/07 Q1018 BECMG BKN035
  • 261300Z AUTO 27003KT 4400 BR OVC031/// ///TCU 07/06 Q1019 BECMG BKN035
  • 261230Z AUTO 00000KT 4000 BR FEW033/// SCT041/// BKN049/// ///TCU 07/06 Q1019 BECMG BKN035
  • 261200Z AUTO VRB01KT 3200 -RA BR BKN044/// OVC052/// ///TCU 06/05 Q1019 BECMG BKN035
  • 261130Z AUTO VRB01KT 3600 -RA BR OVC045 05/05 Q1019 NOSIG

TAF TAF LFGJ
Valide du 26 à 12h jusqu'au 26 à 21h UTC


261100Z 2612/2621 VRB03KT 6000 BKN035
PROB40
TEMPO 2612/2621 4000 -RA



MET'MAP, la Météo Aéronautique d'un coup d'oeil ! - Copyright ORBIFLY Décembre 2007 - Disclaimer

ORBIFLY MET'MAP TEAM :

Programmation & Développement : Alexandra Zaïnal
Sur une idée originale de : Baudouin d'Aumeries
Assistance à la programmation : Marc-Olivier Méhu
Soutien technique & logistique : Manuel Goepfert

Contact : metmap@orbifly.com




SOURCES & CREDITS :

   NOAA